sensor_id;sensor_type;location;lat;lon;timestamp;P1;durP1;ratioP1;P2;durP2;ratioP2
68995;SDS011;56056;48.990;12.146;2023-02-12T00:02:07;37.65;;;22.35;;
68995;SDS011;56056;48.990;12.146;2023-02-12T00:04:33;31.25;;;15.98;;
68995;SDS011;56056;48.990;12.146;2023-02-12T00:06:59;34.80;;;18.02;;
68995;SDS011;56056;48.990;12.146;2023-02-12T00:09:26;39.75;;;20.55;;
68995;SDS011;56056;48.990;12.146;2023-02-12T00:11:52;39.05;;;20.10;;
68995;SDS011;56056;48.990;12.146;2023-02-12T00:14:17;33.83;;;18.40;;
68995;SDS011;56056;48.990;12.146;2023-02-12T00:16:43;38.15;;;24.52;;
68995;SDS011;56056;48.990;12.146;2023-02-12T00:19:09;48.67;;;20.92;;
68995;SDS011;56056;48.990;12.146;2023-02-12T00:21:34;26.90;;;18.30;;
68995;SDS011;56056;48.990;12.146;2023-02-12T00:24:00;30.13;;;15.88;;
68995;SDS011;56056;48.990;12.146;2023-02-12T00:26:27;16.25;;;13.52;;
68995;SDS011;56056;48.990;12.146;2023-02-12T00:28:53;46.75;;;23.38;;
68995;SDS011;56056;48.990;12.146;2023-02-12T00:31:19;33.55;;;21.48;;
68995;SDS011;56056;48.990;12.146;2023-02-12T00:33:46;41.47;;;22.92;;
68995;SDS011;56056;48.990;12.146;2023-02-12T00:36:13;37.58;;;15.52;;
68995;SDS011;56056;48.990;12.146;2023-02-12T00:38:40;20.35;;;10.20;;
68995;SDS011;56056;48.990;12.146;2023-02-12T00:41:05;34.67;;;16.75;;
68995;SDS011;56056;48.990;12.146;2023-02-12T00:43:32;16.60;;;13.15;;
68995;SDS011;56056;48.990;12.146;2023-02-12T00:45:58;39.95;;;15.77;;
68995;SDS011;56056;48.990;12.146;2023-02-12T00:48:24;41.95;;;22.67;;
68995;SDS011;56056;48.990;12.146;2023-02-12T00:50:49;13.65;;;10.73;;
68995;SDS011;56056;48.990;12.146;2023-02-12T00:53:15;26.45;;;12.27;;
68995;SDS011;56056;48.990;12.146;2023-02-12T00:55:41;35.33;;;19.52;;
68995;SDS011;56056;48.990;12.146;2023-02-12T00:58:06;25.08;;;15.93;;
68995;SDS011;56056;48.990;12.146;2023-02-12T01:00:33;35.42;;;15.45;;
68995;SDS011;56056;48.990;12.146;2023-02-12T01:02:59;34.97;;;19.77;;
68995;SDS011;56056;48.990;12.146;2023-02-12T01:05:25;19.83;;;11.60;;
68995;SDS011;56056;48.990;12.146;2023-02-12T01:07:51;29.90;;;15.05;;
68995;SDS011;56056;48.990;12.146;2023-02-12T01:10:17;34.58;;;21.60;;
68995;SDS011;56056;48.990;12.146;2023-02-12T01:12:44;34.25;;;13.95;;
68995;SDS011;56056;48.990;12.146;2023-02-12T01:15:10;25.33;;;13.65;;
68995;SDS011;56056;48.990;12.146;2023-02-12T01:17:37;19.90;;;12.80;;
68995;SDS011;56056;48.990;12.146;2023-02-12T01:20:03;45.20;;;17.42;;
68995;SDS011;56056;48.990;12.146;2023-02-12T01:22:32;35.40;;;18.20;;
68995;SDS011;56056;48.990;12.146;2023-02-12T01:24:58;24.17;;;14.60;;
68995;SDS011;56056;48.990;12.146;2023-02-12T01:27:23;28.98;;;11.98;;
68995;SDS011;56056;48.990;12.146;2023-02-12T01:29:49;13.77;;;10.82;;
68995;SDS011;56056;48.990;12.146;2023-02-12T01:32:15;12.07;;;10.73;;
68995;SDS011;56056;48.990;12.146;2023-02-12T01:34:42;19.35;;;12.30;;
68995;SDS011;56056;48.990;12.146;2023-02-12T01:37:07;41.13;;;18.40;;
68995;SDS011;56056;48.990;12.146;2023-02-12T01:39:33;17.83;;;12.93;;
68995;SDS011;56056;48.990;12.146;2023-02-12T01:41:59;46.38;;;23.00;;
68995;SDS011;56056;48.990;12.146;2023-02-12T01:44:28;38.63;;;16.80;;
68995;SDS011;56056;48.990;12.146;2023-02-12T01:46:55;29.27;;;12.10;;
68995;SDS011;56056;48.990;12.146;2023-02-12T01:49:23;25.88;;;14.30;;
68995;SDS011;56056;48.990;12.146;2023-02-12T01:51:54;36.08;;;22.60;;
68995;SDS011;56056;48.990;12.146;2023-02-12T01:54:22;40.28;;;14.02;;
68995;SDS011;56056;48.990;12.146;2023-02-12T01:56:49;36.10;;;16.55;;
68995;SDS011;56056;48.990;12.146;2023-02-12T01:59:15;33.53;;;24.00;;
68995;SDS011;56056;48.990;12.146;2023-02-12T02:01:41;34.92;;;14.93;;
68995;SDS011;56056;48.990;12.146;2023-02-12T02:04:08;21.98;;;9.60;;
68995;SDS011;56056;48.990;12.146;2023-02-12T02:06:37;26.30;;;14.65;;
68995;SDS011;56056;48.990;12.146;2023-02-12T02:09:08;39.22;;;17.98;;
68995;SDS011;56056;48.990;12.146;2023-02-12T02:11:34;13.70;;;11.68;;
68995;SDS011;56056;48.990;12.146;2023-02-12T02:14:18;22.88;;;11.85;;
68995;SDS011;56056;48.990;12.146;2023-02-12T02:17:02;35.63;;;22.08;;
68995;SDS011;56056;48.990;12.146;2023-02-12T02:19:38;34.10;;;20.73;;
68995;SDS011;56056;48.990;12.146;2023-02-12T02:22:16;33.22;;;16.63;;
68995;SDS011;56056;48.990;12.146;2023-02-12T02:27:54;30.23;;;14.48;;
68995;SDS011;56056;48.990;12.146;2023-02-12T02:30:38;29.30;;;13.85;;
68995;SDS011;56056;48.990;12.146;2023-02-12T02:33:11;40.42;;;15.80;;
68995;SDS011;56056;48.990;12.146;2023-02-12T02:35:42;17.80;;;12.18;;
68995;SDS011;56056;48.990;12.146;2023-02-12T02:38:16;26.00;;;11.45;;
68995;SDS011;56056;48.990;12.146;2023-02-12T02:40:45;12.90;;;9.20;;
68995;SDS011;56056;48.990;12.146;2023-02-12T02:43:16;31.50;;;17.73;;
68995;SDS011;56056;48.990;12.146;2023-02-12T02:45:46;41.97;;;20.25;;
68995;SDS011;56056;48.990;12.146;2023-02-12T02:48:14;46.45;;;18.02;;
68995;SDS011;56056;48.990;12.146;2023-02-12T02:50:42;28.00;;;16.95;;
68995;SDS011;56056;48.990;12.146;2023-02-12T02:53:11;37.25;;;18.95;;
68995;SDS011;56056;48.990;12.146;2023-02-12T02:55:41;27.85;;;12.00;;
68995;SDS011;56056;48.990;12.146;2023-02-12T02:58:09;15.43;;;11.77;;
68995;SDS011;56056;48.990;12.146;2023-02-12T03:00:37;48.17;;;22.33;;
68995;SDS011;56056;48.990;12.146;2023-02-12T03:03:06;27.83;;;13.90;;
68995;SDS011;56056;48.990;12.146;2023-02-12T03:05:37;41.78;;;17.50;;
68995;SDS011;56056;48.990;12.146;2023-02-12T03:08:06;15.80;;;11.35;;
68995;SDS011;56056;48.990;12.146;2023-02-12T03:10:35;15.63;;;10.90;;
68995;SDS011;56056;48.990;12.146;2023-02-12T03:13:05;16.95;;;12.65;;
68995;SDS011;56056;48.990;12.146;2023-02-12T03:15:33;15.40;;;11.70;;
68995;SDS011;56056;48.990;12.146;2023-02-12T03:18:02;18.13;;;11.48;;
68995;SDS011;56056;48.990;12.146;2023-02-12T03:20:32;22.77;;;12.38;;
68995;SDS011;56056;48.990;12.146;2023-02-12T03:23:01;13.52;;;11.73;;
68995;SDS011;56056;48.990;12.146;2023-02-12T03:25:32;14.55;;;13.10;;
68995;SDS011;56056;48.990;12.146;2023-02-12T03:28:01;13.88;;;9.88;;
68995;SDS011;56056;48.990;12.146;2023-02-12T03:30:32;13.52;;;11.85;;
68995;SDS011;56056;48.990;12.146;2023-02-12T03:33:04;11.48;;;10.32;;
68995;SDS011;56056;48.990;12.146;2023-02-12T03:35:37;34.33;;;18.10;;
68995;SDS011;56056;48.990;12.146;2023-02-12T03:38:11;13.63;;;12.23;;
68995;SDS011;56056;48.990;12.146;2023-02-12T03:40:41;21.10;;;13.18;;
68995;SDS011;56056;48.990;12.146;2023-02-12T03:43:08;13.77;;;10.27;;
68995;SDS011;56056;48.990;12.146;2023-02-12T03:45:42;12.98;;;11.70;;
68995;SDS011;56056;48.990;12.146;2023-02-12T03:48:12;17.20;;;14.73;;
68995;SDS011;56056;48.990;12.146;2023-02-12T03:50:44;11.55;;;10.32;;
68995;SDS011;56056;48.990;12.146;2023-02-12T03:53:11;11.40;;;10.20;;
68995;SDS011;56056;48.990;12.146;2023-02-12T03:55:39;11.18;;;9.98;;
68995;SDS011;56056;48.990;12.146;2023-02-12T03:58:07;13.48;;;11.45;;
68995;SDS011;56056;48.990;12.146;2023-02-12T04:00:35;10.35;;;9.32;;
68995;SDS011;56056;48.990;12.146;2023-02-12T04:03:01;14.52;;;12.10;;
68995;SDS011;56056;48.990;12.146;2023-02-12T04:05:28;12.55;;;10.10;;
68995;SDS011;56056;48.990;12.146;2023-02-12T04:07:55;27.30;;;13.68;;
68995;SDS011;56056;48.990;12.146;2023-02-12T04:10:26;12.15;;;10.75;;
68995;SDS011;56056;48.990;12.146;2023-02-12T04:12:56;23.70;;;13.77;;
68995;SDS011;56056;48.990;12.146;2023-02-12T04:15:30;11.98;;;9.30;;
68995;SDS011;56056;48.990;12.146;2023-02-12T04:18:09;12.85;;;10.07;;
68995;SDS011;56056;48.990;12.146;2023-02-12T04:20:47;25.33;;;13.93;;
68995;SDS011;56056;48.990;12.146;2023-02-12T04:23:23;16.60;;;11.00;;
68995;SDS011;56056;48.990;12.146;2023-02-12T04:26:05;12.90;;;11.52;;
68995;SDS011;56056;48.990;12.146;2023-02-12T04:28:35;13.75;;;11.32;;
68995;SDS011;56056;48.990;12.146;2023-02-12T04:31:09;18.52;;;13.63;;
68995;SDS011;56056;48.990;12.146;2023-02-12T04:33:39;10.68;;;9.68;;
68995;SDS011;56056;48.990;12.146;2023-02-12T04:36:11;13.32;;;9.75;;
68995;SDS011;56056;48.990;12.146;2023-02-12T04:38:40;19.92;;;13.02;;
68995;SDS011;56056;48.990;12.146;2023-02-12T04:41:09;11.23;;;10.02;;
68995;SDS011;56056;48.990;12.146;2023-02-12T04:43:36;10.57;;;9.68;;
68995;SDS011;56056;48.990;12.146;2023-02-12T04:46:02;14.98;;;11.32;;
68995;SDS011;56056;48.990;12.146;2023-02-12T04:48:29;14.07;;;11.32;;
68995;SDS011;56056;48.990;12.146;2023-02-12T04:50:55;18.48;;;12.02;;
68995;SDS011;56056;48.990;12.146;2023-02-12T04:53:20;18.92;;;14.05;;
68995;SDS011;56056;48.990;12.146;2023-02-12T04:55:47;15.45;;;12.48;;
68995;SDS011;56056;48.990;12.146;2023-02-12T04:58:14;16.67;;;12.05;;
68995;SDS011;56056;48.990;12.146;2023-02-12T05:00:41;17.67;;;11.43;;
68995;SDS011;56056;48.990;12.146;2023-02-12T05:03:06;13.98;;;11.38;;
68995;SDS011;56056;48.990;12.146;2023-02-12T05:05:32;21.10;;;16.73;;
68995;SDS011;56056;48.990;12.146;2023-02-12T05:07:58;11.57;;;10.45;;
68995;SDS011;56056;48.990;12.146;2023-02-12T05:10:23;14.20;;;11.20;;
68995;SDS011;56056;48.990;12.146;2023-02-12T05:12:51;18.05;;;11.07;;
68995;SDS011;56056;48.990;12.146;2023-02-12T05:15:17;12.68;;;11.40;;
68995;SDS011;56056;48.990;12.146;2023-02-12T05:17:43;16.92;;;12.65;;
68995;SDS011;56056;48.990;12.146;2023-02-12T05:20:10;11.48;;;9.93;;
68995;SDS011;56056;48.990;12.146;2023-02-12T05:22:36;17.48;;;14.40;;
68995;SDS011;56056;48.990;12.146;2023-02-12T05:25:02;24.08;;;12.65;;
68995;SDS011;56056;48.990;12.146;2023-02-12T05:27:27;17.83;;;9.65;;
68995;SDS011;56056;48.990;12.146;2023-02-12T05:29:54;13.50;;;12.40;;
68995;SDS011;56056;48.990;12.146;2023-02-12T05:32:20;12.07;;;10.50;;
68995;SDS011;56056;48.990;12.146;2023-02-12T05:34:46;12.82;;;10.63;;
68995;SDS011;56056;48.990;12.146;2023-02-12T05:37:12;17.48;;;11.57;;
68995;SDS011;56056;48.990;12.146;2023-02-12T05:39:38;11.27;;;9.75;;
68995;SDS011;56056;48.990;12.146;2023-02-12T05:42:03;11.75;;;9.63;;
68995;SDS011;56056;48.990;12.146;2023-02-12T05:44:29;19.33;;;10.77;;
68995;SDS011;56056;48.990;12.146;2023-02-12T05:46:56;15.32;;;10.13;;
68995;SDS011;56056;48.990;12.146;2023-02-12T05:49:22;22.02;;;12.32;;
68995;SDS011;56056;48.990;12.146;2023-02-12T05:51:48;23.90;;;13.00;;
68995;SDS011;56056;48.990;12.146;2023-02-12T05:54:14;12.73;;;11.45;;
68995;SDS011;56056;48.990;12.146;2023-02-12T05:56:41;9.98;;;8.57;;
68995;SDS011;56056;48.990;12.146;2023-02-12T05:59:11;12.40;;;10.05;;
68995;SDS011;56056;48.990;12.146;2023-02-12T06:01:38;12.13;;;9.70;;
68995;SDS011;56056;48.990;12.146;2023-02-12T06:04:09;14.68;;;10.75;;
68995;SDS011;56056;48.990;12.146;2023-02-12T06:06:37;16.00;;;11.15;;
68995;SDS011;56056;48.990;12.146;2023-02-12T06:09:06;32.00;;;14.63;;
68995;SDS011;56056;48.990;12.146;2023-02-12T06:11:31;17.45;;;12.98;;
68995;SDS011;56056;48.990;12.146;2023-02-12T06:13:57;10.90;;;9.98;;
68995;SDS011;56056;48.990;12.146;2023-02-12T06:16:26;12.13;;;10.25;;
68995;SDS011;56056;48.990;12.146;2023-02-12T06:18:52;10.23;;;9.07;;
68995;SDS011;56056;48.990;12.146;2023-02-12T06:21:20;14.85;;;13.32;;
68995;SDS011;56056;48.990;12.146;2023-02-12T06:23:47;17.95;;;12.68;;
68995;SDS011;56056;48.990;12.146;2023-02-12T06:26:13;11.85;;;10.35;;
68995;SDS011;56056;48.990;12.146;2023-02-12T06:28:38;14.93;;;13.55;;
68995;SDS011;56056;48.990;12.146;2023-02-12T06:31:04;17.52;;;12.32;;
68995;SDS011;56056;48.990;12.146;2023-02-12T06:33:30;10.98;;;9.98;;
68995;SDS011;56056;48.990;12.146;2023-02-12T06:35:56;20.45;;;13.40;;
68995;SDS011;56056;48.990;12.146;2023-02-12T06:38:23;24.08;;;10.95;;
68995;SDS011;56056;48.990;12.146;2023-02-12T06:40:49;14.82;;;11.63;;
68995;SDS011;56056;48.990;12.146;2023-02-12T06:43:15;18.95;;;13.23;;
68995;SDS011;56056;48.990;12.146;2023-02-12T06:45:40;10.48;;;9.45;;
68995;SDS011;56056;48.990;12.146;2023-02-12T06:48:06;17.13;;;11.52;;
68995;SDS011;56056;48.990;12.146;2023-02-12T06:50:32;23.27;;;10.70;;
68995;SDS011;56056;48.990;12.146;2023-02-12T06:52:57;18.70;;;12.00;;
68995;SDS011;56056;48.990;12.146;2023-02-12T06:55:24;14.48;;;12.07;;
68995;SDS011;56056;48.990;12.146;2023-02-12T06:57:50;13.02;;;11.63;;
68995;SDS011;56056;48.990;12.146;2023-02-12T07:00:16;31.27;;;16.90;;
68995;SDS011;56056;48.990;12.146;2023-02-12T07:02:42;12.65;;;11.45;;
68995;SDS011;56056;48.990;12.146;2023-02-12T07:05:08;13.55;;;11.38;;
68995;SDS011;56056;48.990;12.146;2023-02-12T07:07:34;14.82;;;13.40;;
68995;SDS011;56056;48.990;12.146;2023-02-12T07:10:00;15.90;;;11.10;;
68995;SDS011;56056;48.990;12.146;2023-02-12T07:12:27;15.80;;;12.07;;
68995;SDS011;56056;48.990;12.146;2023-02-12T07:14:52;14.07;;;12.25;;
68995;SDS011;56056;48.990;12.146;2023-02-12T07:17:18;16.60;;;13.32;;
68995;SDS011;56056;48.990;12.146;2023-02-12T07:19:44;17.35;;;12.18;;
68995;SDS011;56056;48.990;12.146;2023-02-12T07:22:09;14.73;;;9.82;;
68995;SDS011;56056;48.990;12.146;2023-02-12T07:24:35;14.05;;;11.20;;
68995;SDS011;56056;48.990;12.146;2023-02-12T07:27:03;11.55;;;10.50;;
68995;SDS011;56056;48.990;12.146;2023-02-12T07:29:30;23.15;;;13.02;;
68995;SDS011;56056;48.990;12.146;2023-02-12T07:31:56;21.23;;;12.02;;
68995;SDS011;56056;48.990;12.146;2023-02-12T07:34:21;12.18;;;10.73;;
68995;SDS011;56056;48.990;12.146;2023-02-12T07:36:47;10.63;;;9.73;;
68995;SDS011;56056;48.990;12.146;2023-02-12T07:39:13;18.23;;;11.52;;
68995;SDS011;56056;48.990;12.146;2023-02-12T07:41:38;16.42;;;12.98;;
68995;SDS011;56056;48.990;12.146;2023-02-12T07:44:05;17.50;;;13.45;;
68995;SDS011;56056;48.990;12.146;2023-02-12T07:46:36;12.25;;;11.15;;
68995;SDS011;56056;48.990;12.146;2023-02-12T07:49:03;13.05;;;11.73;;
68995;SDS011;56056;48.990;12.146;2023-02-12T07:51:30;19.45;;;12.98;;
68995;SDS011;56056;48.990;12.146;2023-02-12T07:53:57;15.98;;;13.88;;
68995;SDS011;56056;48.990;12.146;2023-02-12T07:56:25;25.80;;;13.93;;
68995;SDS011;56056;48.990;12.146;2023-02-12T07:58:56;17.20;;;12.80;;
68995;SDS011;56056;48.990;12.146;2023-02-12T08:01:24;13.15;;;11.80;;
68995;SDS011;56056;48.990;12.146;2023-02-12T08:03:56;12.35;;;11.15;;
68995;SDS011;56056;48.990;12.146;2023-02-12T08:06:24;18.35;;;12.25;;
68995;SDS011;56056;48.990;12.146;2023-02-12T08:08:51;21.55;;;14.73;;
68995;SDS011;56056;48.990;12.146;2023-02-12T08:11:18;27.73;;;14.85;;
68995;SDS011;56056;48.990;12.146;2023-02-12T08:13:43;15.10;;;13.18;;
68995;SDS011;56056;48.990;12.146;2023-02-12T08:16:10;15.93;;;13.02;;
68995;SDS011;56056;48.990;12.146;2023-02-12T08:18:37;14.73;;;11.82;;
68995;SDS011;56056;48.990;12.146;2023-02-12T08:21:05;15.07;;;12.40;;
68995;SDS011;56056;48.990;12.146;2023-02-12T08:23:31;16.60;;;13.07;;
68995;SDS011;56056;48.990;12.146;2023-02-12T08:26:07;22.80;;;13.77;;
68995;SDS011;56056;48.990;12.146;2023-02-12T08:28:34;17.63;;;13.32;;
68995;SDS011;56056;48.990;12.146;2023-02-12T08:31:01;15.95;;;13.13;;
68995;SDS011;56056;48.990;12.146;2023-02-12T08:33:28;13.07;;;11.80;;
68995;SDS011;56056;48.990;12.146;2023-02-12T08:35:59;17.35;;;12.30;;
68995;SDS011;56056;48.990;12.146;2023-02-12T08:38:27;21.13;;;14.50;;
68995;SDS011;56056;48.990;12.146;2023-02-12T08:40:52;37.67;;;20.52;;
68995;SDS011;56056;48.990;12.146;2023-02-12T08:43:18;17.60;;;13.98;;
68995;SDS011;56056;48.990;12.146;2023-02-12T08:45:44;32.70;;;17.73;;
68995;SDS011;56056;48.990;12.146;2023-02-12T08:48:09;26.58;;;16.02;;
68995;SDS011;56056;48.990;12.146;2023-02-12T08:50:35;19.48;;;17.05;;
68995;SDS011;56056;48.990;12.146;2023-02-12T08:53:01;29.35;;;15.30;;
68995;SDS011;56056;48.990;12.146;2023-02-12T08:55:28;27.45;;;16.85;;
68995;SDS011;56056;48.990;12.146;2023-02-12T08:57:54;21.55;;;13.52;;
68995;SDS011;56056;48.990;12.146;2023-02-12T09:00:22;17.25;;;15.23;;
68995;SDS011;56056;48.990;12.146;2023-02-12T09:02:47;31.33;;;15.25;;
68995;SDS011;56056;48.990;12.146;2023-02-12T09:05:14;26.88;;;15.82;;
68995;SDS011;56056;48.990;12.146;2023-02-12T09:07:39;22.48;;;17.27;;
68995;SDS011;56056;48.990;12.146;2023-02-12T09:10:05;18.17;;;15.32;;
68995;SDS011;56056;48.990;12.146;2023-02-12T09:12:33;18.23;;;15.30;;
68995;SDS011;56056;48.990;12.146;2023-02-12T09:14:59;36.88;;;20.85;;
68995;SDS011;56056;48.990;12.146;2023-02-12T09:17:24;37.70;;;24.15;;
68995;SDS011;56056;48.990;12.146;2023-02-12T09:19:51;30.33;;;16.98;;
68995;SDS011;56056;48.990;12.146;2023-02-12T09:22:17;26.65;;;21.95;;
68995;SDS011;56056;48.990;12.146;2023-02-12T09:24:42;32.78;;;24.17;;
68995;SDS011;56056;48.990;12.146;2023-02-12T09:27:08;20.20;;;17.00;;
68995;SDS011;56056;48.990;12.146;2023-02-12T09:29:35;69.82;;;47.25;;
68995;SDS011;56056;48.990;12.146;2023-02-12T09:32:01;39.22;;;23.00;;
68995;SDS011;56056;48.990;12.146;2023-02-12T09:34:29;21.65;;;18.95;;
68995;SDS011;56056;48.990;12.146;2023-02-12T09:36:55;31.33;;;22.65;;
68995;SDS011;56056;48.990;12.146;2023-02-12T09:39:20;97.45;;;66.40;;
68995;SDS011;56056;48.990;12.146;2023-02-12T09:44:32;32.00;;;15.70;;
68995;SDS011;56056;48.990;12.146;2023-02-12T09:47:04;53.47;;;23.77;;
68995;SDS011;56056;48.990;12.146;2023-02-12T09:49:46;55.13;;;25.98;;
68995;SDS011;56056;48.990;12.146;2023-02-12T09:52:20;30.52;;;17.73;;
68995;SDS011;56056;48.990;12.146;2023-02-12T09:54:48;50.47;;;20.23;;
68995;SDS011;56056;48.990;12.146;2023-02-12T09:57:16;33.80;;;22.63;;
68995;SDS011;56056;48.990;12.146;2023-02-12T09:59:46;36.70;;;24.63;;
68995;SDS011;56056;48.990;12.146;2023-02-12T10:02:16;28.60;;;13.80;;
68995;SDS011;56056;48.990;12.146;2023-02-12T10:04:42;48.28;;;25.70;;
68995;SDS011;56056;48.990;12.146;2023-02-12T10:07:10;32.83;;;26.60;;
68995;SDS011;56056;48.990;12.146;2023-02-12T10:09:48;37.25;;;24.98;;
68995;SDS011;56056;48.990;12.146;2023-02-12T10:12:25;51.28;;;30.05;;
68995;SDS011;56056;48.990;12.146;2023-02-12T10:15:03;36.90;;;25.80;;
68995;SDS011;56056;48.990;12.146;2023-02-12T10:17:39;60.33;;;42.78;;
68995;SDS011;56056;48.990;12.146;2023-02-12T10:22:59;45.33;;;30.10;;
68995;SDS011;56056;48.990;12.146;2023-02-12T10:25:34;60.80;;;38.97;;
68995;SDS011;56056;48.990;12.146;2023-02-12T10:28:06;52.72;;;36.95;;
68995;SDS011;56056;48.990;12.146;2023-02-12T10:30:38;74.88;;;42.42;;
68995;SDS011;56056;48.990;12.146;2023-02-12T10:33:10;60.28;;;37.72;;
68995;SDS011;56056;48.990;12.146;2023-02-12T10:35:42;205.73;;;134.02;;
68995;SDS011;56056;48.990;12.146;2023-02-12T10:38:12;95.13;;;45.60;;
68995;SDS011;56056;48.990;12.146;2023-02-12T10:40:39;84.88;;;49.38;;
68995;SDS011;56056;48.990;12.146;2023-02-12T10:43:09;122.90;;;80.60;;
68995;SDS011;56056;48.990;12.146;2023-02-12T10:45:37;148.32;;;79.18;;
68995;SDS011;56056;48.990;12.146;2023-02-12T10:48:05;88.10;;;60.38;;
68995;SDS011;56056;48.990;12.146;2023-02-12T10:50:37;128.63;;;75.00;;
68995;SDS011;56056;48.990;12.146;2023-02-12T10:53:08;109.60;;;74.22;;
68995;SDS011;56056;48.990;12.146;2023-02-12T10:55:39;192.80;;;107.85;;
68995;SDS011;56056;48.990;12.146;2023-02-12T10:58:05;123.93;;;87.20;;
68995;SDS011;56056;48.990;12.146;2023-02-12T11:00:44;114.15;;;65.05;;
68995;SDS011;56056;48.990;12.146;2023-02-12T11:03:17;534.60;;;280.90;;
68995;SDS011;56056;48.990;12.146;2023-02-12T11:05:45;165.88;;;96.93;;
68995;SDS011;56056;48.990;12.146;2023-02-12T11:08:24;183.40;;;111.68;;
68995;SDS011;56056;48.990;12.146;2023-02-12T11:10:53;164.48;;;109.15;;
68995;SDS011;56056;48.990;12.146;2023-02-12T11:13:21;287.35;;;141.23;;
68995;SDS011;56056;48.990;12.146;2023-02-12T11:15:49;118.57;;;63.53;;
68995;SDS011;56056;48.990;12.146;2023-02-12T11:18:19;440.33;;;212.48;;
68995;SDS011;56056;48.990;12.146;2023-02-12T11:20:48;602.67;;;264.13;;
68995;SDS011;56056;48.990;12.146;2023-02-12T11:23:22;1217.65;;;429.65;;
68995;SDS011;56056;48.990;12.146;2023-02-12T11:25:53;1999.90;;;918.65;;
68995;SDS011;56056;48.990;12.146;2023-02-12T11:28:20;1999.90;;;797.42;;
68995;SDS011;56056;48.990;12.146;2023-02-12T11:30:52;1999.90;;;842.33;;
68995;SDS011;56056;48.990;12.146;2023-02-12T11:33:21;1999.90;;;962.47;;
68995;SDS011;56056;48.990;12.146;2023-02-12T11:35:52;1999.90;;;974.10;;
68995;SDS011;56056;48.990;12.146;2023-02-12T11:38:22;1110.78;;;306.15;;
68995;SDS011;56056;48.990;12.146;2023-02-12T11:40:49;1999.90;;;986.33;;
68995;SDS011;56056;48.990;12.146;2023-02-12T11:43:16;1999.90;;;996.45;;
68995;SDS011;56056;48.990;12.146;2023-02-12T11:45:44;1999.90;;;997.00;;
68995;SDS011;56056;48.990;12.146;2023-02-12T11:48:18;1999.90;;;934.40;;
68995;SDS011;56056;48.990;12.146;2023-02-12T11:50:46;1999.90;;;959.08;;
68995;SDS011;56056;48.990;12.146;2023-02-12T11:53:15;1999.90;;;918.60;;
68995;SDS011;56056;48.990;12.146;2023-02-12T11:55:51;1999.90;;;996.05;;
68995;SDS011;56056;48.990;12.146;2023-02-12T11:58:19;1999.90;;;800.55;;
68995;SDS011;56056;48.990;12.146;2023-02-12T12:00:48;1999.90;;;820.03;;
68995;SDS011;56056;48.990;12.146;2023-02-12T12:03:19;1999.90;;;999.90;;
68995;SDS011;56056;48.990;12.146;2023-02-12T12:05:48;1999.90;;;824.30;;
68995;SDS011;56056;48.990;12.146;2023-02-12T12:08:17;1867.75;;;558.08;;
68995;SDS011;56056;48.990;12.146;2023-02-12T12:10:46;1999.90;;;751.28;;
68995;SDS011;56056;48.990;12.146;2023-02-12T12:13:15;1999.90;;;829.83;;
68995;SDS011;56056;48.990;12.146;2023-02-12T12:15:47;1999.90;;;890.65;;
68995;SDS011;56056;48.990;12.146;2023-02-12T12:18:36;1999.90;;;999.67;;
68995;SDS011;56056;48.990;12.146;2023-02-12T12:21:25;1999.90;;;973.28;;
68995;SDS011;56056;48.990;12.146;2023-02-12T12:23:56;1999.90;;;993.20;;
68995;SDS011;56056;48.990;12.146;2023-02-12T12:26:23;1999.90;;;999.90;;
68995;SDS011;56056;48.990;12.146;2023-02-12T12:28:51;1999.90;;;999.90;;
68995;SDS011;56056;48.990;12.146;2023-02-12T12:31:22;1999.90;;;999.90;;
68995;SDS011;56056;48.990;12.146;2023-02-12T12:33:52;1999.90;;;999.90;;
68995;SDS011;56056;48.990;12.146;2023-02-12T12:39:35;1780.15;;;562.25;;
68995;SDS011;56056;48.990;12.146;2023-02-12T12:42:20;1999.90;;;995.28;;
68995;SDS011;56056;48.990;12.146;2023-02-12T12:45:09;1999.90;;;744.15;;
68995;SDS011;56056;48.990;12.146;2023-02-12T12:47:46;1999.90;;;862.13;;
68995;SDS011;56056;48.990;12.146;2023-02-12T12:50:22;1999.90;;;975.90;;
68995;SDS011;56056;48.990;12.146;2023-02-12T12:52:57;1999.90;;;921.75;;
68995;SDS011;56056;48.990;12.146;2023-02-12T12:58:39;1999.90;;;625.88;;
68995;SDS011;56056;48.990;12.146;2023-02-12T13:01:36;1999.90;;;680.35;;
68995;SDS011;56056;48.990;12.146;2023-02-12T13:04:20;1999.90;;;692.40;;
68995;SDS011;56056;48.990;12.146;2023-02-12T13:07:07;1232.95;;;392.30;;
68995;SDS011;56056;48.990;12.146;2023-02-12T13:09:39;1658.22;;;495.58;;
68995;SDS011;56056;48.990;12.146;2023-02-12T13:12:18;1923.50;;;605.00;;
68995;SDS011;56056;48.990;12.146;2023-02-12T13:14:59;1803.50;;;520.20;;
68995;SDS011;56056;48.990;12.146;2023-02-12T13:17:28;1919.05;;;572.47;;
68995;SDS011;56056;48.990;12.146;2023-02-12T13:19:58;1884.32;;;564.95;;
68995;SDS011;56056;48.990;12.146;2023-02-12T13:22:32;1999.90;;;771.50;;
68995;SDS011;56056;48.990;12.146;2023-02-12T13:25:02;1976.28;;;655.63;;
68995;SDS011;56056;48.990;12.146;2023-02-12T13:27:31;1999.90;;;845.67;;
68995;SDS011;56056;48.990;12.146;2023-02-12T13:30:00;1999.90;;;971.45;;
68995;SDS011;56056;48.990;12.146;2023-02-12T13:32:31;1999.90;;;942.40;;
68995;SDS011;56056;48.990;12.146;2023-02-12T13:34:58;1999.90;;;994.00;;
68995;SDS011;56056;48.990;12.146;2023-02-12T13:37:29;1999.90;;;999.90;;
68995;SDS011;56056;48.990;12.146;2023-02-12T13:39:59;1999.90;;;999.90;;
68995;SDS011;56056;48.990;12.146;2023-02-12T13:42:32;1999.90;;;848.45;;
68995;SDS011;56056;48.990;12.146;2023-02-12T13:45:06;1999.90;;;999.90;;
68995;SDS011;56056;48.990;12.146;2023-02-12T13:47:44;1999.90;;;890.95;;
68995;SDS011;56056;48.990;12.146;2023-02-12T13:50:21;1999.90;;;999.90;;
68995;SDS011;56056;48.990;12.146;2023-02-12T13:52:55;1999.90;;;999.90;;
68995;SDS011;56056;48.990;12.146;2023-02-12T13:55:23;1999.90;;;999.90;;
68995;SDS011;56056;48.990;12.146;2023-02-12T14:00:58;1999.90;;;999.90;;
68995;SDS011;56056;48.990;12.146;2023-02-12T14:03:25;1999.90;;;999.90;;
68995;SDS011;56056;48.990;12.146;2023-02-12T14:06:06;1999.90;;;273.98;;
68995;SDS011;56056;48.990;12.146;2023-02-12T14:08:35;1999.90;;;999.90;;
68995;SDS011;56056;48.990;12.146;2023-02-12T14:11:02;1999.90;;;999.90;;
68995;SDS011;56056;48.990;12.146;2023-02-12T14:13:30;1999.90;;;999.90;;
68995;SDS011;56056;48.990;12.146;2023-02-12T14:15:58;1999.90;;;999.90;;
68995;SDS011;56056;48.990;12.146;2023-02-12T14:18:44;1999.90;;;999.90;;
68995;SDS011;56056;48.990;12.146;2023-02-12T14:27:29;1999.90;;;999.90;;
68995;SDS011;56056;48.990;12.146;2023-02-12T14:30:02;1999.90;;;999.90;;
68995;SDS011;56056;48.990;12.146;2023-02-12T14:33:08;1999.90;;;996.88;;
68995;SDS011;56056;48.990;12.146;2023-02-12T14:35:40;1999.90;;;999.90;;
68995;SDS011;56056;48.990;12.146;2023-02-12T14:41:15;1999.90;;;981.95;;